Time;durP1;ratioP1;P1;durP2;ratioP2;P2;SDS_P1;SDS_P2;PMS_P1;PMS_P2;Temp;Humidity;BMP_temperature;BMP_pressure;BME280_temperature;BME280_humidity;BME280_pressure;Samples;Min_cycle;Max_cycle;Signal;HPM_P1;HPM_P2
2021/05/22 00:00:04;;;;;;;20.05;7.97;;;;;;;10.26;75.14;100609.24;1658444;86;21453;-60
2021/05/22 00:03:11;;;;;;;14.18;7.67;;;;;;;10.24;75.41;100611.28;1658418;86;21377;-60
2021/05/22 00:06:17;;;;;;;18.17;7.45;;;;;;;10.26;75.53;100612.48;1658342;86;21240;-59
2021/05/22 00:09:24;;;;;;;18.73;7.95;;;;;;;10.25;75.59;100617.62;1658356;86;21461;-59
2021/05/22 00:12:30;;;;;;;14.38;6.85;;;;;;;10.24;75.80;100621.39;1658291;86;21240;-60
2021/05/22 00:15:38;;;;;;;19.67;7.15;;;;;;;10.24;76.03;100623.59;1658304;86;21316;-60
2021/05/22 00:18:44;;;;;;;15.88;7.50;;;;;;;10.24;76.17;100626.86;1658442;86;21366;-60
2021/05/22 00:21:50;;;;;;;15.55;7.72;;;;;;;10.25;76.28;100636.27;1658404;86;21414;-61
2021/05/22 00:24:56;;;;;;;21.10;8.28;;;;;;;10.26;76.30;100638.47;1658342;86;21417;-63
2021/05/22 00:28:01;;;;;;;20.48;8.13;;;;;;;10.26;76.42;100646.17;1658572;86;21454;-61
2021/05/22 00:31:08;;;;;;;23.73;8.60;;;;;;;10.29;76.46;100646.38;1658496;86;21378;-60
2021/05/22 00:34:15;;;;;;;17.62;8.35;;;;;;;10.28;76.48;100652.34;1658459;86;21271;-61
2021/05/22 00:37:21;;;;;;;18.40;7.55;;;;;;;10.26;76.48;100648.05;1658396;86;21259;-61
2021/05/22 00:40:27;;;;;;;14.33;7.40;;;;;;;10.23;76.44;100635.57;1659158;83;21732;-60
2021/05/22 00:43:33;;;;;;;21.77;7.95;;;;;;;10.19;76.36;100645.66;1659077;86;21232;-59
2021/05/22 00:46:39;;;;;;;20.35;7.47;;;;;;;10.15;76.30;100645.12;1658963;86;21251;-60
2021/05/22 00:49:46;;;;;;;21.80;8.28;;;;;;;10.10;76.24;100648.87;1659281;86;21286;-59
2021/05/22 00:52:53;;;;;;;20.08;7.78;;;;;;;10.05;76.25;100645.73;1659339;86;21239;-61
2021/05/22 00:56:00;;;;;;;20.37;9.38;;;;;;;10.00;76.01;100647.27;1658860;86;21760;-60
2021/05/22 00:59:05;;;;;;;24.70;7.97;;;;;;;9.94;76.05;100647.94;1659694;86;21255;-60
2021/05/22 01:02:11;;;;;;;19.35;8.78;;;;;;;9.91;76.03;100660.05;1659418;86;21212;-60
2021/05/22 01:05:17;;;;;;;20.60;7.92;;;;;;;9.90;76.21;100649.27;1658973;86;21247;-59
2021/05/22 01:08:31;;;;;;;17.50;8.90;;;;;;;9.92;76.25;100650.84;1658987;86;21304;-60
2021/05/22 01:11:43;;;;;;;23.55;9.63;;;;;;;9.91;76.25;100643.64;1659112;86;21276;-60
2021/05/22 01:14:59;;;;;;;24.92;11.55;;;;;;;9.86;76.11;100641.91;1659060;86;21292;-60
2021/05/22 01:18:04;;;;;;;24.80;9.65;;;;;;;9.81;76.19;100632.50;1658993;86;21275;-61
2021/05/22 01:21:11;;;;;;;23.50;10.98;;;;;;;9.77;76.24;100631.09;1659543;86;21268;-61
2021/05/22 01:24:20;;;;;;;22.05;8.65;;;;;;;9.71;76.26;100644.93;1658960;86;21267;-60
2021/05/22 01:27:24;;;;;;;21.15;9.10;;;;;;;9.69;76.20;100648.86;1659222;86;21748;-61
2021/05/22 01:30:31;;;;;;;25.50;10.60;;;;;;;9.65;76.02;100648.83;1659010;86;21803;-60
2021/05/22 01:33:37;;;;;;;26.02;9.60;;;;;;;9.59;75.65;100650.85;1659557;86;21259;-61
2021/05/22 01:36:44;;;;;;;21.68;9.05;;;;;;;9.50;75.63;100662.77;1659338;86;21231;-60
2021/05/22 01:39:50;;;;;;;20.80;9.43;;;;;;;9.49;76.02;100659.17;1658981;86;21291;-60
2021/05/22 01:42:56;;;;;;;20.02;9.05;;;;;;;9.48;76.11;100665.63;1658474;86;21351;-59
2021/05/22 01:46:02;;;;;;;17.10;8.53;;;;;;;9.46;75.96;100659.99;1658316;86;21939;-59
2021/05/22 01:49:07;;;;;;;15.55;7.97;;;;;;;9.42;75.86;100665.45;1658444;86;21394;-59
2021/05/22 01:52:13;;;;;;;25.77;8.90;;;;;;;9.36;75.73;100664.20;1658415;86;21251;-60
2021/05/22 01:55:21;;;;;;;17.67;7.95;;;;;;;9.33;75.79;100664.53;1658483;86;21267;-59
2021/05/22 01:58:26;;;;;;;16.90;8.23;;;;;;;9.31;75.90;100675.28;1658465;86;21236;-60
2021/05/22 02:01:31;;;;;;;20.95;9.23;;;;;;;9.31;76.15;100677.48;1658332;86;21385;-60
2021/05/22 02:04:37;;;;;;;17.23;9.23;;;;;;;9.31;76.32;100674.75;1657886;86;21386;-60
2021/05/22 02:07:42;;;;;;;20.02;9.25;;;;;;;9.33;76.52;100677.33;1657978;86;22191;-60
2021/05/22 02:10:48;;;;;;;19.07;8.98;;;;;;;9.37;76.91;100673.27;1640839;86;21236;-60
2021/05/22 02:13:54;;;;;;;27.52;9.48;;;;;;;9.45;77.11;100682.89;1658063;86;21792;-60
2021/05/22 02:17:00;;;;;;;16.30;8.20;;;;;;;9.49;77.03;100698.79;1658586;86;21347;-60
2021/05/22 02:20:06;;;;;;;18.25;8.53;;;;;;;9.52;76.86;100703.93;1658500;86;21867;-60
2021/05/22 02:23:11;;;;;;;22.80;8.95;;;;;;;9.51;76.61;100698.13;1658655;86;21358;-60
2021/05/22 02:26:17;;;;;;;22.30;8.58;;;;;;;9.52;76.59;100711.27;1658487;86;21259;-60
2021/05/22 02:29:25;;;;;;;19.48;8.55;;;;;;;9.56;76.74;100714.87;1658331;86;21406;-60
2021/05/22 02:32:31;;;;;;;19.48;8.05;;;;;;;9.58;76.54;100710.61;1658362;86;21389;-61
2021/05/22 02:35:36;;;;;;;20.48;8.68;;;;;;;9.58;76.45;100723.78;1658523;86;21259;-59
2021/05/22 02:38:50;;;;;;;21.07;8.90;;;;;;;9.60;76.46;100730.45;1658339;86;21425;-59
2021/05/22 02:47:27;;;;;;;18.30;7.97;;;;;;;9.74;76.46;100734.81;1877445;76;22758;-59
2021/05/22 02:50:33;;;;;;;20.95;8.73;;;;;;;9.69;76.59;100735.80;1792376;79;21287;-60
2021/05/22 02:53:39;;;;;;;21.48;7.95;;;;;;;9.76;76.82;100734.16;1805613;79;21693;-59
2021/05/22 02:56:44;;;;;;;19.37;7.75;;;;;;;9.86;76.90;100755.37;1796012;79;21315;-59
2021/05/22 02:59:53;;;;;;;17.07;8.48;;;;;;;9.96;76.92;100753.39;1790936;79;21209;-59
2021/05/22 03:02:56;;;;;;;21.82;9.08;;;;;;;10.03;76.73;100760.44;1797464;79;21340;-60
2021/05/22 03:06:01;;;;;;;25.23;9.20;;;;;;;10.05;76.80;100757.04;1797610;79;21374;-59
2021/05/22 03:09:07;;;;;;;18.12;8.00;;;;;;;10.11;77.10;100763.25;1799278;79;21783;-59
2021/05/22 03:12:14;;;;;;;24.23;9.10;;;;;;;10.19;77.30;100757.32;1800835;79;21668;-59
2021/05/22 03:15:20;;;;;;;19.57;8.58;;;;;;;10.24;77.18;100754.09;1798629;79;21370;-59
2021/05/22 03:18:27;;;;;;;23.45;9.18;;;;;;;10.30;77.09;100746.08;1797298;79;21324;-60
2021/05/22 03:21:33;;;;;;;22.15;9.03;;;;;;;10.36;77.10;100739.07;1799514;79;21264;-60
2021/05/22 03:24:40;;;;;;;26.02;7.90;;;;;;;10.43;77.02;100738.77;1799863;79;21208;-60
2021/05/22 03:27:45;;;;;;;20.60;8.00;;;;;;;10.50;76.89;100746.64;1799684;79;21208;-60
2021/05/22 03:30:51;;;;;;;23.18;7.87;;;;;;;10.58;76.63;100737.62;1799777;79;21720;-60
2021/05/22 03:33:57;;;;;;;18.60;7.83;;;;;;;10.66;76.56;100744.45;1799877;79;21248;-60
2021/05/22 03:37:03;;;;;;;20.17;8.23;;;;;;;10.76;76.62;100736.45;1799737;79;21268;-60
2021/05/22 03:40:09;;;;;;;17.45;7.55;;;;;;;10.88;76.59;100745.20;1781534;80;21343;-59
2021/05/22 03:43:15;;;;;;;17.82;7.03;;;;;;;11.01;76.62;100754.63;1800687;79;21331;-61
2021/05/22 03:46:21;;;;;;;14.23;7.30;;;;;;;11.17;76.63;100766.11;1798856;79;21201;-61
2021/05/22 03:49:28;;;;;;;13.65;6.83;;;;;;;11.32;76.65;100765.78;1794222;79;21346;-60
2021/05/22 03:52:34;;;;;;;16.55;6.35;;;;;;;11.49;76.56;100775.71;1794533;79;21327;-61
2021/05/22 03:55:38;;;;;;;15.95;5.97;;;;;;;11.63;76.46;100771.80;1792632;80;21354;-62
2021/05/22 03:58:44;;;;;;;15.05;6.40;;;;;;;11.79;76.37;100764.05;1793513;79;21406;-61
2021/05/22 04:01:50;;;;;;;9.33;4.83;;;;;;;11.95;76.15;100776.37;1793601;80;21165;-60
2021/05/22 04:04:55;;;;;;;9.53;4.97;;;;;;;12.08;75.66;100779.42;1792997;79;21414;-60
2021/05/22 04:08:02;;;;;;;12.20;4.28;;;;;;;12.22;75.13;100795.16;1784884;80;21245;-61
2021/05/22 04:11:08;;;;;;;7.65;4.35;;;;;;;12.36;74.81;100795.80;1792783;79;21232;-61
2021/05/22 04:14:14;;;;;;;6.60;4.15;;;;;;;12.48;74.35;100787.50;1793659;79;21379;-59
2021/05/22 04:17:21;;;;;;;4.85;3.47;;;;;;;12.62;73.79;100793.61;1794026;80;21391;-61
2021/05/22 04:20:29;;;;;;;5.17;3.42;;;;;;;12.77;73.25;100792.34;1794026;79;21347;-61
2021/05/22 04:23:34;;;;;;;8.75;3.25;;;;;;;12.93;72.53;100798.61;1793901;80;21366;-61
2021/05/22 04:26:46;;;;;;;7.78;3.58;;;;;;;13.08;71.82;100795.44;1793641;80;21323;-61
2021/05/22 04:29:52;;;;;;;6.65;3.75;;;;;;;13.23;70.94;100799.13;1793751;79;21355;-61
2021/05/22 04:33:00;;;;;;;5.87;3.75;;;;;;;13.36;70.01;100802.13;1793654;80;21339;-61
2021/05/22 04:36:05;;;;;;;6.83;2.80;;;;;;;13.49;69.93;100800.14;1793625;79;21453;-60
2021/05/22 04:39:12;;;;;;;5.70;3.00;;;;;;;13.62;69.19;100805.02;1793590;79;21221;-61
2021/05/22 04:42:17;;;;;;;5.47;3.25;;;;;;;13.75;69.18;100814.88;1793530;80;21339;-60
2021/05/22 04:45:24;;;;;;;8.30;2.80;;;;;;;13.89;68.57;100805.80;1794193;79;21359;-59
2021/05/22 04:48:31;;;;;;;4.03;2.90;;;;;;;14.00;67.35;100811.69;1794200;79;21355;-61
2021/05/22 04:51:37;;;;;;;4.37;2.62;;;;;;;14.10;66.90;100806.77;1797567;79;21251;-60
2021/05/22 04:54:45;;;;;;;5.00;2.67;;;;;;;14.22;66.53;100800.28;1799010;79;21300;-61
2021/05/22 04:57:53;;;;;;;5.47;2.70;;;;;;;14.32;66.05;100805.87;1799427;79;21220;-61
2021/05/22 05:00:58;;;;;;;3.95;2.67;;;;;;;14.42;65.88;100807.83;1798840;79;21258;-61
2021/05/22 05:04:03;;;;;;;5.30;2.95;;;;;;;14.52;65.94;100810.30;1798436;79;21343;-61
2021/05/22 05:07:11;;;;;;;5.00;2.83;;;;;;;14.64;66.18;100809.61;1799168;79;21567;-59
2021/05/22 05:10:18;;;;;;;4.97;3.15;;;;;;;14.76;66.06;100807.23;1798875;79;21209;-61
2021/05/22 05:13:24;;;;;;;5.70;3.67;;;;;;;14.90;65.73;100814.62;1798979;80;21181;-61
2021/05/22 05:16:31;;;;;;;5.87;3.20;;;;;;;15.03;65.45;100814.78;1799068;79;21176;-59
2021/05/22 05:19:38;;;;;;;5.33;2.40;;;;;;;15.13;64.94;100813.93;1798446;79;21386;-59
2021/05/22 05:22:50;;;;;;;5.12;2.80;;;;;;;15.25;64.37;100833.08;1798830;80;21177;-61
2021/05/22 05:25:52;;;;;;;5.90;2.70;;;;;;;15.34;64.23;100833.27;1798886;79;21335;-61
2021/05/22 05:28:58;;;;;;;5.00;2.60;;;;;;;15.45;64.07;100828.65;1799330;79;21682;-61
2021/05/22 05:32:06;;;;;;;4.30;2.55;;;;;;;15.59;63.83;100830.48;1796047;79;21342;-60
2021/05/22 05:35:13;;;;;;;6.35;2.60;;;;;;;15.71;63.83;100838.59;1778673;79;21203;-62
2021/05/22 05:38:18;;;;;;;5.33;2.33;;;;;;;15.85;63.61;100831.27;1772338;81;21366;-60
2021/05/22 05:41:23;;;;;;;4.40;2.62;;;;;;;15.98;63.02;100833.59;1772666;81;21410;-60
2021/05/22 05:44:31;;;;;;;4.83;2.60;;;;;;;16.10;63.25;100837.54;1772532;80;21387;-62
2021/05/22 05:47:39;;;;;;;8.10;2.60;;;;;;;16.22;63.37;100845.59;1771937;81;21641;-62
2021/05/22 05:50:45;;;;;;;4.22;2.37;;;;;;;16.33;63.11;100846.97;1768435;80;21239;-61
2021/05/22 05:53:51;;;;;;;3.70;2.37;;;;;;;16.44;62.81;100847.27;1772129;80;21370;-60
2021/05/22 05:56:56;;;;;;;6.60;2.25;;;;;;;16.55;62.95;100849.16;1772196;81;21419;-62
2021/05/22 06:00:03;;;;;;;12.53;2.50;;;;;;;16.64;62.85;100851.55;1771871;80;21358;-60
2021/05/22 06:03:09;;;;;;;9.43;2.60;;;;;;;16.76;63.01;100860.13;1772155;81;21718;-61
2021/05/22 06:06:14;;;;;;;8.75;2.35;;;;;;;16.86;62.76;100870.27;1793418;79;21933;-61
2021/05/22 06:09:20;;;;;;;5.92;1.95;;;;;;;16.97;63.01;100867.79;1790520;79;21213;-62
2021/05/22 06:12:27;;;;;;;8.20;2.10;;;;;;;17.07;61.87;100855.83;1770827;79;21753;-62
2021/05/22 06:15:35;;;;;;;7.33;2.47;;;;;;;17.17;61.37;100858.20;1765376;80;21264;-63
2021/05/22 06:18:42;;;;;;;5.75;1.80;;;;;;;17.26;61.19;100846.75;1765476;81;21277;-61
2021/05/22 06:21:53;;;;;;;4.15;1.87;;;;;;;17.36;59.97;100859.64;1785942;79;21245;-61
2021/05/22 06:24:57;;;;;;;6.72;1.77;;;;;;;17.43;59.43;100853.60;1788543;80;21198;-59
2021/05/22 06:28:04;;;;;;;6.17;2.10;;;;;;;17.53;58.67;100850.47;1788236;80;21360;-61
2021/05/22 06:31:12;;;;;;;6.40;2.67;;;;;;;17.61;58.68;100854.43;1787857;80;21778;-61
2021/05/22 06:34:17;;;;;;;7.00;2.52;;;;;;;17.68;59.19;100860.81;1787923;80;21363;-60
2021/05/22 06:37:23;;;;;;;5.78;2.40;;;;;;;17.73;58.17;100857.75;1788404;80;21344;-61
2021/05/22 06:40:30;;;;;;;7.00;2.42;;;;;;;17.78;57.92;100862.66;1788490;80;21209;-59
2021/05/22 06:43:35;;;;;;;7.87;2.02;;;;;;;17.85;58.07;100864.91;1787897;80;21210;-59
2021/05/22 06:49:46;;;;;;;6.75;2.42;;;;;;;18.01;58.09;100865.89;1788336;79;21257;-61
2021/05/22 06:52:52;;;;;;;12.70;2.55;;;;;;;18.11;58.02;100863.53;1791054;80;21427;-59
2021/05/22 06:56:00;;;;;;;5.78;2.12;;;;;;;18.19;57.21;100852.23;1791414;80;21362;-61
2021/05/22 06:59:06;;;;;;;6.40;1.72;;;;;;;18.28;56.51;100852.36;1790335;80;21367;-61
2021/05/22 07:02:11;;;;;;;3.27;1.87;;;;;;;18.38;56.21;100853.31;1759748;81;21212;-60
2021/05/22 07:05:17;;;;;;;3.92;1.40;;;;;;;18.48;55.45;100858.75;1759712;80;21280;-60
2021/05/22 07:08:24;;;;;;;3.50;1.35;;;;;;;18.59;53.65;100862.78;1759961;81;21714;-61
2021/05/22 07:11:31;;;;;;;2.25;1.30;;;;;;;18.63;49.08;100859.36;1759761;81;21248;-59
2021/05/22 07:14:37;;;;;;;1.98;1.30;;;;;;;18.67;48.07;100862.03;1783629;80;21486;-60
2021/05/22 07:17:42;;;;;;;3.12;1.30;;;;;;;18.73;45.98;100859.77;1772977;80;21220;-59
2021/05/22 07:20:48;;;;;;;2.77;1.25;;;;;;;18.76;45.20;100859.33;1758905;80;21213;-58
2021/05/22 07:23:53;;;;;;;1.42;1.20;;;;;;;18.76;45.17;100861.24;1759244;80;21181;-58
2021/05/22 07:26:59;;;;;;;3.35;1.40;;;;;;;18.82;45.48;100858.45;1759276;81;21288;-60
2021/05/22 07:30:08;;;;;;;2.15;1.37;;;;;;;18.90;45.51;100861.55;1759415;80;21197;-59
2021/05/22 07:33:15;;;;;;;3.67;1.45;;;;;;;19.00;46.28;100858.62;1760064;81;21734;-59
2021/05/22 07:36:23;;;;;;;4.83;1.50;;;;;;;19.13;47.33;100860.49;1759669;81;21224;-61
2021/05/22 07:39:29;;;;;;;4.00;1.10;;;;;;;19.24;47.59;100853.73;1783693;80;21418;-59
2021/05/22 07:42:38;;;;;;;4.47;1.47;;;;;;;19.38;47.47;100862.86;1781208;80;21197;-60
2021/05/22 07:45:53;;;;;;;2.22;1.47;;;;;;;19.47;46.92;100857.39;1783519;78;21244;-60
2021/05/22 07:49:02;;;;;;;3.87;1.40;;;;;;;19.59;46.60;100860.29;1790013;78;21662;-61
2021/05/22 07:52:10;;;;;;;4.90;1.32;;;;;;;19.72;47.40;100863.00;1792235;78;21347;-59
2021/05/22 07:55:19;;;;;;;2.65;1.30;;;;;;;19.83;46.80;100866.45;1793222;78;21410;-60
2021/05/22 07:58:24;;;;;;;2.35;1.40;;;;;;;19.88;45.43;100859.69;1793047;80;21355;-61
2021/05/22 08:01:31;;;;;;;3.17;1.15;;;;;;;19.91;45.39;100870.34;1777031;80;21386;-62
2021/05/22 08:04:38;;;;;;;2.77;1.32;;;;;;;20.01;45.89;100866.55;1789129;80;21217;-59
2021/05/22 08:07:45;;;;;;;2.20;1.20;;;;;;;20.02;43.45;100864.06;1793112;80;21201;-61
2021/05/22 08:10:52;;;;;;;4.33;1.72;;;;;;;20.01;43.18;100865.98;1792873;78;21197;-60
2021/05/22 08:13:57;;;;;;;4.37;1.52;;;;;;;19.97;43.43;100860.58;1793360;78;21325;-60
2021/05/22 08:17:02;;;;;;;4.22;1.40;;;;;;;20.01;44.47;100854.03;1792968;80;21169;-60
2021/05/22 08:20:10;;;;;;;4.35;1.50;;;;;;;20.11;44.59;100854.36;1792904;78;21320;-59
2021/05/22 08:23:16;;;;;;;4.92;1.12;;;;;;;20.19;44.69;100837.43;1792572;80;21197;-60
2021/05/22 08:26:22;;;;;;;4.33;1.27;;;;;;;20.21;42.64;100827.80;1792517;79;21189;-60
2021/05/22 08:29:30;;;;;;;3.02;1.20;;;;;;;20.20;43.06;100822.47;1792460;78;21930;-60
2021/05/22 08:32:35;;;;;;;1.92;1.12;;;;;;;20.25;42.96;100828.17;1793254;80;21718;-61
2021/05/22 08:35:41;;;;;;;3.72;1.72;;;;;;;20.27;42.34;100828.28;1793546;78;21740;-58
2021/05/22 08:38:48;;;;;;;5.80;1.65;;;;;;;20.32;43.52;100824.80;1792705;78;21391;-58
2021/05/22 08:41:54;;;;;;;3.65;1.22;;;;;;;20.39;43.43;100821.44;1762305;81;21297;-60
2021/05/22 08:45:03;;;;;;;4.87;1.40;;;;;;;20.45;43.45;100819.98;1746337;81;21600;-58
2021/05/22 08:48:09;;;;;;;3.02;1.40;;;;;;;20.54;44.64;100810.78;1762229;81;21335;-60
2021/05/22 08:51:20;;;;;;;3.35;1.32;;;;;;;20.62;43.49;100806.30;1762153;81;21362;-61
2021/05/22 08:54:25;;;;;;;5.25;1.47;;;;;;;20.66;41.59;100806.17;1770688;80;21382;-60
2021/05/22 08:57:31;;;;;;;3.12;1.00;;;;;;;20.72;41.59;100791.33;1772647;81;21220;-61
2021/05/22 09:00:41;;;;;;;2.92;1.20;;;;;;;20.71;39.94;100789.61;1772479;80;21330;-60
2021/05/22 09:03:47;;;;;;;2.55;1.57;;;;;;;20.71;40.13;100791.86;1772449;80;21386;-61
2021/05/22 09:07:12;;;;;;;3.75;1.40;;;;;;;20.78;41.24;100800.13;1772529;81;21331;-60
2021/05/22 09:10:39;;;;;;;6.60;1.20;;;;;;;20.81;40.45;100795.49;1779146;79;21311;-59
2021/05/22 09:13:45;;;;;;;1.47;1.07;;;;;;;20.82;40.23;100782.44;1804350;79;21161;-60
2021/05/22 09:16:50;;;;;;;2.08;1.10;;;;;;;20.92;40.11;100782.19;1804245;79;21331;-60
2021/05/22 09:19:59;;;;;;;2.85;1.60;;;;;;;20.98;40.30;100778.49;1804127;79;21393;-58
2021/05/22 09:23:17;;;;;;;1.87;1.22;;;;;;;21.10;40.22;100779.42;1793002;79;21347;-59
2021/05/22 09:26:23;;;;;;;2.92;1.45;;;;;;;21.21;39.57;100783.34;1784746;79;21323;-60
2021/05/22 09:29:33;;;;;;;4.08;1.52;;;;;;;21.31;38.54;100776.11;1804089;79;21224;-60
2021/05/22 09:32:39;;;;;;;6.65;1.50;;;;;;;21.36;37.39;100774.86;1804029;79;21358;-59
2021/05/22 09:35:46;;;;;;;2.27;1.20;;;;;;;21.32;37.58;100761.11;1804053;79;21663;-61
2021/05/22 09:39:02;;;;;;;4.60;1.07;;;;;;;21.39;37.25;100753.48;1803893;79;21829;-60
2021/05/22 09:42:15;;;;;;;5.17;1.42;;;;;;;21.44;37.69;100750.84;1788700;79;21366;-59
2021/05/22 09:45:47;;;;;;;2.12;1.42;;;;;;;21.55;37.63;100758.95;1803878;79;21351;-60
2021/05/22 09:48:53;;;;;;;2.67;1.17;;;;;;;21.60;37.11;100742.34;1803720;79;21374;-60
2021/05/22 09:52:16;;;;;;;3.67;1.40;;;;;;;21.73;38.75;100745.78;1803585;79;21387;-59
2021/05/22 09:55:22;;;;;;;4.08;1.70;;;;;;;21.81;40.35;100739.03;1801336;79;21844;-60
2021/05/22 09:58:41;;;;;;;5.15;1.75;;;;;;;21.93;40.56;100744.06;1804053;79;21323;-60
2021/05/22 10:01:50;;;;;;;3.83;1.35;;;;;;;22.03;38.29;100748.52;1804126;79;21236;-60
2021/05/22 10:05:01;;;;;;;3.60;1.72;;;;;;;22.03;38.57;100746.58;1804298;79;21397;-61
2021/05/22 10:08:10;;;;;;;3.22;1.40;;;;;;;22.11;39.18;100730.02;1788301;79;21357;-58
2021/05/22 10:11:15;;;;;;;1.67;1.30;;;;;;;22.27;39.00;100739.06;1804237;79;21199;-58
2021/05/22 10:14:22;;;;;;;1.30;1.20;;;;;;;22.34;38.63;100733.36;1804028;79;21374;-59
2021/05/22 10:17:30;;;;;;;4.28;1.37;;;;;;;22.43;37.98;100728.56;1801554;79;21182;-60
2021/05/22 10:20:36;;;;;;;3.25;1.40;;;;;;;22.56;36.62;100725.55;1785760;79;21221;-59
2021/05/22 10:23:42;;;;;;;3.83;1.17;;;;;;;22.61;35.56;100731.20;1792614;79;21201;-59
2021/05/22 10:26:49;;;;;;;1.42;1.07;;;;;;;22.72;36.51;100739.28;1783884;79;21804;-59
2021/05/22 10:29:55;;;;;;;2.33;1.22;;;;;;;22.86;35.63;100739.30;1772063;80;21206;-59
2021/05/22 10:33:12;;;;;;;3.83;1.87;;;;;;;22.97;35.46;100730.03;1772727;81;21226;-59
2021/05/22 10:36:18;;;;;;;4.28;1.30;;;;;;;23.09;34.71;100730.83;1772186;81;21344;-58
2021/05/22 10:39:49;;;;;;;4.33;1.55;;;;;;;23.17;34.95;100736.88;1772385;80;21890;-57
2021/05/22 10:43:04;;;;;;;3.08;1.37;;;;;;;23.38;35.06;100731.16;1783611;79;21360;-59
2021/05/22 10:46:12;;;;;;;2.85;1.55;;;;;;;23.41;34.15;100720.88;1787512;79;21468;-59
2021/05/22 10:49:17;;;;;;;1.77;1.20;;;;;;;23.50;33.56;100725.80;1795391;79;21247;-58
2021/05/22 10:52:30;;;;;;;1.75;1.20;;;;;;;23.45;33.65;100708.11;1795822;79;21826;-59
2021/05/22 10:55:42;;;;;;;2.33;1.20;;;;;;;23.60;34.37;100698.58;1793814;79;21355;-58
2021/05/22 10:59:09;;;;;;;4.08;1.25;;;;;;;23.74;33.27;100697.72;1789386;79;21322;-58
2021/05/22 11:02:45;;;;;;;1.15;0.80;;;;;;;23.82;33.70;100702.31;1715684;82;21396;-58
2021/05/22 11:05:52;;;;;;;2.60;0.72;;;;;;;23.97;31.72;100702.61;1678629;83;21220;-58
2021/05/22 11:08:57;;;;;;;1.72;1.00;;;;;;;24.07;31.72;100690.16;1708516;83;21201;-58
2021/05/22 11:12:07;;;;;;;5.65;1.27;;;;;;;24.22;31.74;100686.75;1734980;82;21196;-58
2021/05/22 11:15:12;;;;;;;3.67;0.95;;;;;;;24.42;32.21;100680.88;1706106;83;21215;-57
2021/05/22 11:18:17;;;;;;;1.72;1.00;;;;;;;24.57;31.34;100688.11;1705351;84;21207;-57
2021/05/22 11:21:30;;;;;;;1.87;0.90;;;;;;;24.61;30.01;100678.06;1718082;82;21196;-59
2021/05/22 11:24:34;;;;;;;;;;;;;;;24.70;30.18;100686.36;1702419;82;21397;-58
2021/05/22 11:28:05;;;;;;;4.00;0.95;;;;;;;24.86;30.48;100684.01;1732174;81;20214;-58
2021/05/22 11:31:10;;;;;;;1.50;1.00;;;;;;;25.02;30.28;100677.48;1726861;82;21884;-56
2021/05/22 11:34:35;;;;;;;8.43;1.20;;;;;;;25.08;28.92;100705.84;1730511;82;21250;-59
2021/05/22 11:37:42;;;;;;;4.17;0.98;;;;;;;25.11;29.38;100700.28;1731261;82;21289;-57
2021/05/22 11:40:52;;;;;;;3.12;1.00;;;;;;;25.10;28.73;100704.20;1743062;81;21209;-54
2021/05/22 11:43:59;;;;;;;3.45;1.10;;;;;;;25.11;28.91;100705.89;1788855;79;21329;-56
2021/05/22 11:47:04;;;;;;;2.50;0.88;;;;;;;25.15;28.90;100711.23;1782278;79;21332;-56
2021/05/22 11:50:14;;;;;;;5.17;0.80;;;;;;;25.18;28.92;100721.09;1770783;80;21276;-59
2021/05/22 11:53:22;;;;;;;3.58;0.88;;;;;;;25.35;29.37;100727.48;1772752;80;21390;-58
2021/05/22 11:56:28;;;;;;;3.10;0.80;;;;;;;25.53;28.72;100725.14;1795648;79;21430;-56
2021/05/22 11:59:35;;;;;;;1.82;0.80;;;;;;;25.64;27.56;100734.52;1804519;79;21685;-58
2021/05/22 12:02:44;;;;;;;1.82;0.70;;;;;;;25.61;27.66;100725.23;1768455;79;21323;-54
2021/05/22 12:05:50;;;;;;;1.50;0.78;;;;;;;25.62;27.37;100710.09;1804628;79;21354;-56
2021/05/22 12:09:13;;;;;;;1.60;0.85;;;;;;;25.62;27.61;100704.48;1804362;79;21303;-56
2021/05/22 12:12:19;;;;;;;3.33;0.97;;;;;;;25.64;27.47;100686.84;1804557;79;21339;-57
2021/05/22 12:15:34;;;;;;;2.83;0.75;;;;;;;25.74;26.76;100684.95;1795134;79;21224;-59
2021/05/22 12:18:40;;;;;;;2.98;0.82;;;;;;;25.75;26.93;100685.81;1755913;81;21871;-57
2021/05/22 12:21:46;;;;;;;2.37;0.93;;;;;;;25.56;25.97;100690.95;1776644;79;21340;-58
2021/05/22 12:24:53;;;;;;;3.47;0.88;;;;;;;25.32;25.79;100684.53;1790329;79;21359;-57
2021/05/22 12:27:59;;;;;;;2.50;0.90;;;;;;;25.20;26.37;100695.06;1771052;81;21746;-60
2021/05/22 12:31:06;;;;;;;1.10;0.78;;;;;;;25.15;25.48;100685.20;1772069;80;21394;-59
2021/05/22 12:34:14;;;;;;;4.33;0.80;;;;;;;25.05;25.49;100682.55;1772385;80;21385;-59
2021/05/22 12:37:30;;;;;;;1.12;0.70;;;;;;;25.05;25.25;100680.33;1772198;81;21248;-60
2021/05/22 12:40:38;;;;;;;3.02;0.90;;;;;;;25.10;25.71;100690.73;1772429;80;21370;-58
2021/05/22 12:43:57;;;;;;;0.93;0.75;;;;;;;25.24;26.35;100687.27;1771670;81;21354;-57
2021/05/22 12:47:05;;;;;;;2.27;0.80;;;;;;;25.44;25.25;100672.61;1771908;81;21721;-60
2021/05/22 12:50:13;;;;;;;4.60;0.85;;;;;;;25.57;25.75;100680.59;1772123;80;21401;-59
2021/05/22 12:53:19;;;;;;;4.25;0.95;;;;;;;25.57;25.76;100679.19;1772044;81;21347;-60
2021/05/22 12:56:24;;;;;;;2.33;0.50;;;;;;;25.51;27.04;100674.11;1772211;81;21405;-59
2021/05/22 12:59:32;;;;;;;3.22;0.90;;;;;;;25.57;26.13;100660.97;1781459;79;21185;-60
2021/05/22 13:02:38;;;;;;;1.85;1.05;;;;;;;25.72;27.28;100668.13;1790060;79;21242;-59
2021/05/22 13:05:44;;;;;;;1.22;0.70;;;;;;;25.70;25.67;100668.94;1803583;79;21366;-59
2021/05/22 13:08:50;;;;;;;0.90;0.70;;;;;;;25.48;25.34;100668.18;1796644;79;21344;-60
2021/05/22 13:12:05;;;;;;;4.45;0.98;;;;;;;25.40;25.57;100666.72;1771024;81;21359;-61
2021/05/22 13:15:22;;;;;;;1.82;0.72;;;;;;;25.40;25.97;100657.45;1775243;79;21307;-60
2021/05/22 13:18:39;;;;;;;2.60;0.60;;;;;;;25.53;26.53;100653.64;1765666;81;21197;-61
2021/05/22 13:21:44;;;;;;;1.52;0.70;;;;;;;25.72;25.43;100644.28;1765348;81;21201;-60
2021/05/22 13:25:04;;;;;;;4.17;0.80;;;;;;;25.89;25.29;100637.40;1765280;81;21307;-60
2021/05/22 13:28:16;;;;;;;1.72;0.80;;;;;;;26.02;25.82;100646.76;1789927;79;21327;-60
2021/05/22 13:31:31;;;;;;;2.80;0.80;;;;;;;26.16;26.17;100650.77;1791770;80;21221;-60
2021/05/22 13:34:38;;;;;;;4.87;0.88;;;;;;;26.35;26.65;100652.01;1792920;79;21778;-60
2021/05/22 13:37:45;;;;;;;2.30;0.60;;;;;;;26.84;26.92;100646.94;1775557;79;21174;-59
2021/05/22 13:40:53;;;;;;;3.08;0.90;;;;;;;27.37;25.52;100641.47;1792259;79;21723;-60
2021/05/22 13:43:57;;;;;;;1.95;0.78;;;;;;;27.35;24.42;100645.12;1717031;82;21785;-58
2021/05/22 13:47:03;;;;;;;4.72;1.40;;;;;;;27.32;24.09;100656.92;1781513;80;21675;-60
2021/05/22 13:50:12;;;;;;;5.10;1.00;;;;;;;27.21;24.03;100660.23;1793173;79;21380;-60
2021/05/22 13:53:17;;;;;;;1.50;0.70;;;;;;;26.90;25.44;100656.21;1792955;80;21332;-61
2021/05/22 13:56:24;;;;;;;2.50;0.85;;;;;;;26.67;26.00;100641.25;1794070;79;21399;-59
2021/05/22 13:59:32;;;;;;;2.95;0.93;;;;;;;26.53;26.27;100633.84;1719746;80;21190;-61
2021/05/22 14:02:38;;;;;;;3.70;0.90;;;;;;;26.45;25.71;100621.73;1801979;79;21334;-61
2021/05/22 14:05:44;;;;;;;2.27;0.80;;;;;;;26.36;25.74;100620.58;1803910;79;21927;-57
2021/05/22 14:08:52;;;;;;;1.15;0.60;;;;;;;26.22;27.14;100613.22;1804175;79;21330;-61
2021/05/22 14:11:58;;;;;;;3.33;0.90;;;;;;;26.21;27.54;100612.09;1798865;79;21360;-60
2021/05/22 14:15:04;;;;;;;2.05;0.80;;;;;;;26.08;27.64;100607.81;1790581;79;21344;-59
2021/05/22 14:18:12;;;;;;;1.72;0.80;;;;;;;26.14;26.96;100604.46;1794335;79;21343;-60
2021/05/22 14:21:19;;;;;;;2.15;1.00;;;;;;;26.25;27.14;100611.81;1803714;79;21858;-60
2021/05/22 14:24:24;;;;;;;3.42;1.00;;;;;;;26.35;28.11;100602.87;1803308;79;21362;-60
2021/05/22 14:27:29;;;;;;;3.75;1.00;;;;;;;26.52;26.62;100601.27;1788666;79;21339;-61
2021/05/22 14:30:33;;;;;;;2.15;0.90;;;;;;;26.58;26.41;100592.29;1771402;80;21224;-60
2021/05/22 14:33:38;;;;;;;1.82;1.00;;;;;;;26.47;25.56;100587.20;1770862;81;21188;-60
2021/05/22 14:36:43;;;;;;;3.33;0.80;;;;;;;26.17;26.48;100582.86;1780672;79;21495;-60
2021/05/22 14:39:48;;;;;;;3.05;1.00;;;;;;;26.22;26.80;100585.70;1792458;79;21216;-60